sensor_id;sensor_type;location;lat;lon;timestamp;temperature;humidity
9265;DHT22;4669;49.594;10.958;2022-11-15T05:23:51;6.00;99.90
9265;DHT22;4669;49.594;10.958;2022-11-15T05:29:12;6.10;99.90
9265;DHT22;4669;49.594;10.958;2022-11-15T05:34:32;6.10;99.90
9265;DHT22;4669;49.594;10.958;2022-11-15T05:39:54;6.10;99.90
9265;DHT22;4669;49.594;10.958;2022-11-15T05:45:15;6.00;99.90
9265;DHT22;4669;49.594;10.958;2022-11-15T05:50:37;6.00;99.90
9265;DHT22;4669;49.594;10.958;2022-11-15T05:55:59;5.90;99.90
9265;DHT22;4669;49.594;10.958;2022-11-15T06:01:20;5.90;99.90
9265;DHT22;4669;49.594;10.958;2022-11-15T06:06:40;5.80;99.90
9265;DHT22;4669;49.594;10.958;2022-11-15T06:12:03;5.70;99.90
9265;DHT22;4669;49.594;10.958;2022-11-15T06:17:24;5.70;99.90
9265;DHT22;4669;49.594;10.958;2022-11-15T06:22:44;5.60;99.90
9265;DHT22;4669;49.594;10.958;2022-11-15T06:28:06;5.60;99.90
9265;DHT22;4669;49.594;10.958;2022-11-15T06:33:26;5.70;99.90
9265;DHT22;4669;49.594;10.958;2022-11-15T06:38:47;5.70;99.90
9265;DHT22;4669;49.594;10.958;2022-11-15T06:44:09;5.70;99.90
9265;DHT22;4669;49.594;10.958;2022-11-15T06:49:30;5.70;99.90
9265;DHT22;4669;49.594;10.958;2022-11-15T06:54:50;5.70;99.90
9265;DHT22;4669;49.594;10.958;2022-11-15T07:00:14;5.80;99.90
9265;DHT22;4669;49.594;10.958;2022-11-15T07:05:34;5.80;99.90
9265;DHT22;4669;49.594;10.958;2022-11-15T07:10:57;5.80;99.90
9265;DHT22;4669;49.594;10.958;2022-11-15T07:16:20;5.90;99.90
9265;DHT22;4669;49.594;10.958;2022-11-15T07:21:40;5.90;99.90
9265;DHT22;4669;49.594;10.958;2022-11-15T17:02:02;10.00;99.90
9265;DHT22;4669;49.594;10.958;2022-11-15T17:07:05;10.10;99.90
9265;DHT22;4669;49.594;10.958;2022-11-15T17:12:08;10.10;99.90
9265;DHT22;4669;49.594;10.958;2022-11-15T17:17:12;10.00;99.90
9265;DHT22;4669;49.594;10.958;2022-11-15T17:22:14;9.90;99.90
9265;DHT22;4669;49.594;10.958;2022-11-15T17:27:16;9.90;99.90
9265;DHT22;4669;49.594;10.958;2022-11-15T17:32:20;9.80;99.90
9265;DHT22;4669;49.594;10.958;2022-11-15T17:37:22;9.90;99.90
9265;DHT22;4669;49.594;10.958;2022-11-15T17:42:24;10.10;99.90
9265;DHT22;4669;49.594;10.958;2022-11-15T17:47:27;10.00;99.90
9265;DHT22;4669;49.594;10.958;2022-11-15T17:52:29;10.00;99.90
9265;DHT22;4669;49.594;10.958;2022-11-15T17:57:31;10.10;99.90
9265;DHT22;4669;49.594;10.958;2022-11-15T18:02:34;10.20;99.90
9265;DHT22;4669;49.594;10.958;2022-11-15T18:07:36;10.20;99.90
9265;DHT22;4669;49.594;10.958;2022-11-15T18:12:38;10.10;99.90
9265;DHT22;4669;49.594;10.958;2022-11-15T18:17:42;10.10;99.90
9265;DHT22;4669;49.594;10.958;2022-11-15T18:22:44;10.20;99.90
9265;DHT22;4669;49.594;10.958;2022-11-15T18:27:46;10.20;99.90
9265;DHT22;4669;49.594;10.958;2022-11-15T18:32:54;10.20;99.90
9265;DHT22;4669;49.594;10.958;2022-11-15T18:37:56;10.20;99.90
9265;DHT22;4669;49.594;10.958;2022-11-15T18:42:58;10.10;99.90
9265;DHT22;4669;49.594;10.958;2022-11-15T18:48:01;10.10;99.90
9265;DHT22;4669;49.594;10.958;2022-11-15T18:53:03;10.10;99.90
9265;DHT22;4669;49.594;10.958;2022-11-15T18:58:05;10.00;99.90
9265;DHT22;4669;49.594;10.958;2022-11-15T19:03:08;10.00;99.90
9265;DHT22;4669;49.594;10.958;2022-11-15T19:08:10;9.90;99.90
9265;DHT22;4669;49.594;10.958;2022-11-15T19:13:14;9.90;99.90
9265;DHT22;4669;49.594;10.958;2022-11-15T19:18:17;9.80;99.90
9265;DHT22;4669;49.594;10.958;2022-11-15T19:23:20;9.80;99.90
9265;DHT22;4669;49.594;10.958;2022-11-15T19:28:22;9.80;99.90
9265;DHT22;4669;49.594;10.958;2022-11-15T19:33:25;9.80;99.90
9265;DHT22;4669;49.594;10.958;2022-11-15T19:38:29;9.80;99.90
9265;DHT22;4669;49.594;10.958;2022-11-15T19:43:32;9.80;99.90
9265;DHT22;4669;49.594;10.958;2022-11-15T19:48:35;9.80;99.90
9265;DHT22;4669;49.594;10.958;2022-11-15T19:53:38;9.70;99.90
9265;DHT22;4669;49.594;10.958;2022-11-15T19:58:40;9.70;99.90
9265;DHT22;4669;49.594;10.958;2022-11-15T20:03:44;9.70;99.90
9265;DHT22;4669;49.594;10.958;2022-11-15T20:08:47;9.70;99.90
9265;DHT22;4669;49.594;10.958;2022-11-15T20:13:49;9.70;99.90
9265;DHT22;4669;49.594;10.958;2022-11-15T20:18:53;9.70;99.90
9265;DHT22;4669;49.594;10.958;2022-11-15T20:23:55;9.70;99.90
9265;DHT22;4669;49.594;10.958;2022-11-15T20:28:57;9.60;99.90
9265;DHT22;4669;49.594;10.958;2022-11-15T20:34:03;9.60;99.90
9265;DHT22;4669;49.594;10.958;2022-11-15T20:39:05;9.60;99.90
9265;DHT22;4669;49.594;10.958;2022-11-15T20:44:07;9.60;99.90
9265;DHT22;4669;49.594;10.958;2022-11-15T20:49:10;9.50;99.90
9265;DHT22;4669;49.594;10.958;2022-11-15T20:54:12;9.50;99.90
9265;DHT22;4669;49.594;10.958;2022-11-15T20:59:14;9.50;99.90
9265;DHT22;4669;49.594;10.958;2022-11-15T21:04:18;9.40;99.90
9265;DHT22;4669;49.594;10.958;2022-11-15T21:09:20;9.40;99.90
9265;DHT22;4669;49.594;10.958;2022-11-15T21:14:40;9.40;99.90
9265;DHT22;4669;49.594;10.958;2022-11-15T21:19:43;9.40;99.90
9265;DHT22;4669;49.594;10.958;2022-11-15T21:24:46;9.30;99.90
9265;DHT22;4669;49.594;10.958;2022-11-15T21:29:48;9.30;99.90
9265;DHT22;4669;49.594;10.958;2022-11-15T21:34:52;9.20;99.90
9265;DHT22;4669;49.594;10.958;2022-11-15T21:39:54;9.20;99.90
9265;DHT22;4669;49.594;10.958;2022-11-15T21:44:56;9.20;99.90
9265;DHT22;4669;49.594;10.958;2022-11-15T21:49:59;9.10;99.90
9265;DHT22;4669;49.594;10.958;2022-11-15T21:55:01;9.00;99.90
9265;DHT22;4669;49.594;10.958;2022-11-15T22:00:04;9.00;99.90
9265;DHT22;4669;49.594;10.958;2022-11-15T22:05:25;8.90;99.90
9265;DHT22;4669;49.594;10.958;2022-11-15T22:10:27;8.90;99.90
9265;DHT22;4669;49.594;10.958;2022-11-15T22:15:29;8.80;99.90
9265;DHT22;4669;49.594;10.958;2022-11-15T22:20:32;8.70;99.90
9265;DHT22;4669;49.594;10.958;2022-11-15T22:25:34;8.70;99.90
9265;DHT22;4669;49.594;10.958;2022-11-15T22:30:36;8.70;99.90
9265;DHT22;4669;49.594;10.958;2022-11-15T22:35:42;8.70;99.90
9265;DHT22;4669;49.594;10.958;2022-11-15T22:40:44;8.70;99.90
9265;DHT22;4669;49.594;10.958;2022-11-15T22:45:51;8.70;99.90
9265;DHT22;4669;49.594;10.958;2022-11-15T22:50:56;8.70;99.90
9265;DHT22;4669;49.594;10.958;2022-11-15T22:55:59;8.60;99.90
